Time;durP1;ratioP1;P1;durP2;ratioP2;P2;SDS_P1;SDS_P2;PMS_P1;PMS_P2;Temp;Humidity;BMP_temperature;BMP_pressure;BME280_temperature;BME280_humidity;BME280_pressure;Samples;Min_cycle;Max_cycle;Signal;HPM_P1;HPM_P2
2022/09/03 00:02:22;;;;;;;;;;;18.70;80.30;;;;;;4828478;29;19951;-96
2022/09/03 00:05:17;;;;;;;;;;;18.70;80.40;;;;;;4829314;29;19935;-96
2022/09/03 00:07:47;;;;;;;;;;;18.70;80.30;;;;;;4827594;29;19990;-96
2022/09/03 00:10:23;;;;;;;;;;;18.80;80.70;;;;;;4828824;29;19952;-96
2022/09/03 00:12:56;;;;;;;;;;;18.80;80.60;;;;;;4828875;29;20014;-96
2022/09/03 00:15:26;;;;;;;;;;;18.80;80.20;;;;;;4829377;29;19974;-96
2022/09/03 00:18:17;;;;;;;;;;;18.80;80.60;;;;;;4829202;29;19971;-96
2022/09/03 00:20:46;;;;;;;;;;;18.80;80.50;;;;;;4828071;29;20044;-96
2022/09/03 00:23:21;;;;;;;;;;;18.70;81.00;;;;;;4828152;29;20021;-96
2022/09/03 00:26:09;;;;;;;;;;;18.70;81.30;;;;;;4828855;29;20016;-96
2022/09/03 00:28:39;;;;;;;;;;;18.60;81.50;;;;;;4842890;29;19955;-97
2022/09/03 00:31:17;;;;;;;;;;;18.50;81.30;;;;;;4828025;29;19960;-96
2022/09/03 00:33:46;;;;;;;;;;;18.40;81.70;;;;;;4827495;29;19947;-96
2022/09/03 00:36:21;;;;;;;;;;;18.30;82.20;;;;;;4828325;29;19957;-96
2022/09/03 00:38:50;;;;;;;;;;;18.20;82.60;;;;;;4828302;29;20045;-96
2022/09/03 00:41:30;;;;;;;;;;;18.20;82.50;;;;;;4827620;29;19952;-96
2022/09/03 00:43:59;;;;;;;;;;;18.20;82.60;;;;;;4843449;29;20002;-96
2022/09/03 00:46:37;;;;;;;;;;;18.20;82.80;;;;;;4828451;29;19941;-96
2022/09/03 00:49:06;;;;;;;;;;;18.10;83.00;;;;;;4827405;29;19933;-96
2022/09/03 00:51:44;;;;;;;;;;;18.10;82.90;;;;;;4827444;29;19949;-96
2022/09/03 00:54:21;;;;;;;;;;;18.20;82.70;;;;;;4827549;29;19969;-96
2022/09/03 00:57:05;;;;;;;;;;;18.20;82.80;;;;;;4825431;29;20413;-96
2022/09/03 00:59:51;;;;;;;;;;;18.20;82.90;;;;;;4826315;29;19959;-96
2022/09/03 01:02:32;;;;;;;;;;;18.20;83.10;;;;;;4827271;29;19945;-96
2022/09/03 01:05:08;;;;;;;;;;;18.10;83.20;;;;;;4827283;29;19928;-96
2022/09/03 01:07:38;;;;;;;;;;;17.90;83.80;;;;;;4825340;29;19943;-96
2022/09/03 01:10:10;;;;;;;;;;;17.90;83.80;;;;;;4827892;29;19960;-97
2022/09/03 01:12:59;;;;;;;;;;;17.90;84.00;;;;;;4826483;29;19956;-96
2022/09/03 01:15:27;;;;;;;;;;;18.00;83.60;;;;;;4828494;29;19954;-96
2022/09/03 01:17:58;;;;;;;;;;;18.00;84.00;;;;;;4827427;29;19964;-96
2022/09/03 01:20:25;;;;;;;;;;;18.00;84.20;;;;;;4827450;29;19929;-96
2022/09/03 01:23:10;;;;;;;;;;;18.00;84.40;;;;;;4828235;29;19925;-96
2022/09/03 01:25:56;;;;;;;;;;;18.00;84.30;;;;;;4827730;29;19984;-96
2022/09/03 01:28:39;;;;;;;;;;;18.00;84.20;;;;;;4826552;29;19966;-96
2022/09/03 01:31:25;;;;;;;;;;;17.80;84.50;;;;;;4826488;29;19949;-96
2022/09/03 01:34:10;;;;;;;;;;;17.70;84.60;;;;;;4826991;29;19943;-96
2022/09/03 01:36:55;;;;;;;;;;;17.50;85.20;;;;;;4826255;29;19975;-96
2022/09/03 01:39:28;;;;;;;;;;;17.50;85.70;;;;;;4827758;29;19996;-96
2022/09/03 01:42:14;;;;;;;;;;;17.50;85.80;;;;;;4841277;29;20400;-96
2022/09/03 01:44:52;;;;;;;;;;;17.50;85.70;;;;;;4827007;29;19949;-96
2022/09/03 01:47:41;;;;;;;;;;;17.80;85.50;;;;;;4826759;29;20045;-96
2022/09/03 01:50:16;;;;;;;;;;;17.80;84.80;;;;;;4827453;29;19942;-96
2022/09/03 01:53:00;;;;;;;;;;;18.00;84.60;;;;;;4827030;29;19945;-96
2022/09/03 01:55:44;;;;;;;;;;;18.00;84.50;;;;;;4826631;29;19950;-96
2022/09/03 01:58:30;;;;;;;;;;;17.90;84.50;;;;;;4827551;29;20060;-96
2022/09/03 02:01:00;;;;;;;;;;;17.90;84.60;;;;;;4826754;29;20012;-96
2022/09/03 02:03:37;;;;;;;;;;;17.80;84.70;;;;;;4826492;29;19948;-96
2022/09/03 02:06:13;;;;;;;;;;;17.90;84.70;;;;;;4825558;29;19955;-96
2022/09/03 02:08:40;;;;;;;;;;;17.90;84.50;;;;;;4825641;29;20037;-96
2022/09/03 02:11:08;;;;;;;;;;;18.00;84.40;;;;;;4826333;29;19948;-96
2022/09/03 02:13:41;;;;;;;;;;;17.90;84.50;;;;;;4826221;29;19960;-96
2022/09/03 02:16:16;;;;;;;;;;;17.90;84.50;;;;;;4825900;29;19988;-96
2022/09/03 02:18:46;;;;;;;;;;;18.00;84.40;;;;;;4825701;29;20032;-96
2022/09/03 02:21:18;;;;;;;;;;;18.00;84.30;;;;;;5009192;24;19974;-96
2022/09/03 02:23:53;;;;;;;;;;;18.00;84.20;;;;;;4846329;29;19948;-96
2022/09/03 02:26:24;;;;;;;;;;;18.00;84.00;;;;;;4830054;29;19943;-96
2022/09/03 02:28:52;;;;;;;;;;;18.00;84.00;;;;;;4830527;29;20402;-96
2022/09/03 02:31:31;;;;;;;;;;;18.00;84.10;;;;;;4846152;29;19949;-96
2022/09/03 02:34:01;;;;;;;;;;;17.90;84.40;;;;;;4846327;29;19958;-96
2022/09/03 02:36:35;;;;;;;;;;;17.80;84.50;;;;;;4830517;29;19931;-96
2022/09/03 02:39:03;;;;;;;;;;;17.80;84.60;;;;;;4842888;29;19996;-96
2022/09/03 02:41:33;;;;;;;;;;;17.70;84.90;;;;;;4830198;29;19942;-96
2022/09/03 02:44:01;;;;;;;;;;;17.70;85.10;;;;;;4815747;29;19963;-96
2022/09/03 02:46:39;;;;;;;;;;;17.80;84.40;;;;;;4846998;29;19934;-96
2022/09/03 02:49:10;;;;;;;;;;;17.90;83.20;;;;;;4829412;29;20298;-95
2022/09/03 02:51:42;;;;;;;;;;;18.10;82.00;;;;;;4830551;29;19953;-96
2022/09/03 02:54:14;;;;;;;;;;;18.30;80.60;;;;;;4846574;29;19961;-96
2022/09/03 02:56:47;;;;;;;;;;;18.40;79.30;;;;;;4830194;29;19950;-96
2022/09/03 02:59:16;;;;;;;;;;;18.50;79.20;;;;;;4830650;29;19950;-96
2022/09/03 03:01:51;;;;;;;;;;;18.40;79.10;;;;;;4835682;29;19948;-96
2022/09/03 03:04:17;;;;;;;;;;;18.40;79.60;;;;;;4830127;29;19942;-96
2022/09/03 03:06:49;;;;;;;;;;;18.30;79.90;;;;;;4844948;29;19931;-96
2022/09/03 03:09:17;;;;;;;;;;;18.10;80.30;;;;;;4829180;29;19933;-96
2022/09/03 03:11:44;;;;;;;;;;;18.00;80.60;;;;;;4829837;29;19960;-96
2022/09/03 03:14:10;;;;;;;;;;;17.90;80.90;;;;;;4830057;29;19950;-96
2022/09/03 03:16:38;;;;;;;;;;;17.90;81.20;;;;;;4846448;29;19947;-96
2022/09/03 03:19:10;;;;;;;;;;;17.90;81.10;;;;;;4833143;29;19961;-96
2022/09/03 03:21:37;;;;;;;;;;;17.90;81.10;;;;;;4845109;29;19973;-96
2022/09/03 03:24:10;;;;;;;;;;;17.90;80.70;;;;;;4830605;29;19954;-96
2022/09/03 03:26:36;;;;;;;;;;;18.00;80.80;;;;;;4830746;29;19958;-96
2022/09/03 03:29:05;;;;;;;;;;;18.00;80.70;;;;;;4845423;29;19954;-96
2022/09/03 03:31:38;;;;;;;;;;;18.00;80.80;;;;;;4829927;29;19951;-96
2022/09/03 03:34:05;;;;;;;;;;;18.10;80.30;;;;;;4830428;29;19957;-96
2022/09/03 03:36:33;;;;;;;;;;;18.10;80.10;;;;;;4830452;29;20004;-96
2022/09/03 03:39:02;;;;;;;;;;;18.10;80.60;;;;;;4829813;29;20037;-96
2022/09/03 03:41:37;;;;;;;;;;;18.00;80.90;;;;;;4830125;29;19948;-96
2022/09/03 03:44:06;;;;;;;;;;;17.90;81.10;;;;;;4829710;29;19962;-96
2022/09/03 03:46:35;;;;;;;;;;;17.70;81.70;;;;;;4830191;29;19942;-96
2022/09/03 03:49:05;;;;;;;;;;;17.60;82.20;;;;;;4829430;29;20021;-96
2022/09/03 03:51:34;;;;;;;;;;;17.60;82.50;;;;;;4829296;29;19949;-96
2022/09/03 03:54:01;;;;;;;;;;;17.50;82.30;;;;;;4829025;29;19936;-96
2022/09/03 03:56:28;;;;;;;;;;;17.50;82.00;;;;;;4829033;29;19954;-96
2022/09/03 03:58:55;;;;;;;;;;;17.50;82.20;;;;;;4829276;29;19967;-96
2022/09/03 04:01:24;;;;;;;;;;;17.60;82.20;;;;;;4829479;29;19985;-96
2022/09/03 04:03:51;;;;;;;;;;;17.60;82.20;;;;;;4828916;29;19958;-96
2022/09/03 04:06:26;;;;;;;;;;;17.50;82.20;;;;;;4829256;29;19951;-96
2022/09/03 04:08:54;;;;;;;;;;;17.60;81.80;;;;;;4827466;29;19954;-96
2022/09/03 04:11:21;;;;;;;;;;;17.60;81.60;;;;;;4829880;29;19982;-96
2022/09/03 04:13:51;;;;;;;;;;;17.50;81.70;;;;;;4830294;29;19948;-96
2022/09/03 04:16:19;;;;;;;;;;;17.60;81.90;;;;;;4829944;29;19956;-96
2022/09/03 04:18:48;;;;;;;;;;;17.70;81.90;;;;;;4828219;29;20460;-96
2022/09/03 04:21:17;;;;;;;;;;;17.70;81.80;;;;;;4826191;29;19974;-96
2022/09/03 04:23:46;;;;;;;;;;;17.70;81.90;;;;;;4814864;29;19938;-96
2022/09/03 04:26:19;;;;;;;;;;;17.80;81.90;;;;;;4815311;29;19965;-96
2022/09/03 04:28:49;;;;;;;;;;;17.80;81.90;;;;;;4830603;29;19928;-96
2022/09/03 04:31:22;;;;;;;;;;;17.80;81.70;;;;;;4813569;29;19946;-96
2022/09/03 04:33:53;;;;;;;;;;;17.70;82.00;;;;;;4813582;29;19945;-96
2022/09/03 04:36:27;;;;;;;;;;;17.60;82.00;;;;;;4813221;29;19975;-96
2022/09/03 04:38:55;;;;;;;;;;;17.50;82.00;;;;;;4813611;29;19973;-96
2022/09/03 04:41:23;;;;;;;;;;;17.40;82.10;;;;;;4811224;29;19986;-96
2022/09/03 04:43:51;;;;;;;;;;;17.40;82.20;;;;;;4814080;29;19983;-96
2022/09/03 04:46:22;;;;;;;;;;;17.40;82.10;;;;;;4814704;29;19979;-96
2022/09/03 04:48:50;;;;;;;;;;;17.40;82.30;;;;;;4814771;29;19943;-96
2022/09/03 04:51:18;;;;;;;;;;;17.30;83.00;;;;;;4813553;29;19958;-96
2022/09/03 04:53:50;;;;;;;;;;;17.30;83.50;;;;;;4814432;29;20013;-96
2022/09/03 04:56:20;;;;;;;;;;;17.40;83.10;;;;;;4813773;29;19952;-96
2022/09/03 04:58:53;;;;;;;;;;;17.50;82.60;;;;;;4813505;29;19970;-96
2022/09/03 05:01:24;;;;;;;;;;;17.70;82.10;;;;;;4813968;29;19956;-96
2022/09/03 05:03:58;;;;;;;;;;;17.80;81.70;;;;;;4830259;29;19974;-96
2022/09/03 05:06:28;;;;;;;;;;;17.90;81.40;;;;;;4830572;29;19946;-96
2022/09/03 05:09:25;;;;;;;;;;;18.00;80.90;;;;;;4830249;29;19951;-96
2022/09/03 05:11:54;;;;;;;;;;;18.10;80.50;;;;;;4811184;29;19953;-96
2022/09/03 05:14:29;;;;;;;;;;;18.20;80.50;;;;;;4830208;29;19956;-96
2022/09/03 05:16:59;;;;;;;;;;;18.20;81.00;;;;;;4814548;29;20013;-96
2022/09/03 05:19:28;;;;;;;;;;;18.20;81.50;;;;;;4814142;29;19955;-96
2022/09/03 05:22:06;;;;;;;;;;;18.10;82.50;;;;;;4824833;29;19968;-96
2022/09/03 05:24:34;;;;;;;;;;;18.10;82.90;;;;;;4831933;29;19943;-96
2022/09/03 05:27:04;;;;;;;;;;;18.00;82.90;;;;;;4830357;29;20013;-96
2022/09/03 05:29:37;;;;;;;;;;;18.00;82.90;;;;;;4848237;29;20010;-96
2022/09/03 05:32:04;;;;;;;;;;;18.10;82.60;;;;;;4848233;29;19936;-96
2022/09/03 05:34:37;;;;;;;;;;;18.30;81.10;;;;;;4848213;29;19949;-96
2022/09/03 05:37:13;;;;;;;;;;;18.50;80.60;;;;;;4831390;29;19979;-96
2022/09/03 05:39:52;;;;;;;;;;;18.60;80.70;;;;;;4846013;29;19975;-96
2022/09/03 05:42:20;;;;;;;;;;;18.80;81.00;;;;;;4832900;29;19951;-96
2022/09/03 05:44:49;;;;;;;;;;;18.80;80.90;;;;;;4830303;29;20004;-96
2022/09/03 05:47:23;;;;;;;;;;;18.80;79.70;;;;;;4846414;29;19955;-96
2022/09/03 05:49:51;;;;;;;;;;;18.90;79.20;;;;;;4831805;29;19940;-96
2022/09/03 05:52:22;;;;;;;;;;;19.10;79.40;;;;;;4829938;29;19952;-96
2022/09/03 05:54:55;;;;;;;;;;;19.10;79.70;;;;;;4832215;29;19955;-96
2022/09/03 05:57:28;;;;;;;;;;;19.20;79.90;;;;;;4832078;29;19972;-96
2022/09/03 05:59:59;;;;;;;;;;;19.30;79.80;;;;;;4844510;29;19927;-96
2022/09/03 06:02:31;;;;;;;;;;;19.40;79.70;;;;;;4832632;29;20026;-96
2022/09/03 06:05:02;;;;;;;;;;;19.40;79.20;;;;;;4848450;29;20039;-96
2022/09/03 06:07:32;;;;;;;;;;;19.60;78.80;;;;;;4831910;29;19951;-96
2022/09/03 06:10:26;;;;;;;;;;;19.70;78.50;;;;;;4834807;29;20293;-96
2022/09/03 06:13:13;;;;;;;;;;;19.80;76.20;;;;;;4847196;29;19994;-96
2022/09/03 06:15:55;;;;;;;;;;;19.80;75.30;;;;;;4847885;29;19940;-96
2022/09/03 06:18:26;;;;;;;;;;;19.90;74.80;;;;;;4831945;29;20027;-96
2022/09/03 06:20:55;;;;;;;;;;;19.90;73.80;;;;;;4831798;29;19950;-96
2022/09/03 06:23:24;;;;;;;;;;;20.00;74.10;;;;;;4847603;29;19951;-96
2022/09/03 06:26:16;;;;;;;;;;;20.10;74.00;;;;;;4831574;29;19957;-96
2022/09/03 06:28:55;;;;;;;;;;;20.10;72.40;;;;;;4832077;29;19949;-96
2022/09/03 06:31:25;;;;;;;;;;;20.20;70.90;;;;;;4831870;29;19955;-97
2022/09/03 06:33:59;;;;;;;;;;;20.30;70.00;;;;;;4848487;29;19963;-96
2022/09/03 06:36:31;;;;;;;;;;;20.40;69.60;;;;;;4830083;29;19941;-96
2022/09/03 06:39:07;;;;;;;;;;;20.50;69.20;;;;;;4832398;29;19987;-96
2022/09/03 06:41:42;;;;;;;;;;;20.60;68.90;;;;;;4848403;29;19942;-96
2022/09/03 06:44:22;;;;;;;;;;;20.80;66.90;;;;;;4792953;30;20016;-96
2022/09/03 06:47:00;;;;;;;;;;;20.90;66.80;;;;;;4777688;30;20010;-96
2022/09/03 06:49:52;;;;;;;;;;;21.00;65.80;;;;;;4805457;29;19965;-96
2022/09/03 07:13:38;;;;;;;;;;;21.40;63.20;;;;;;5355949;24;19972;-96
2022/09/03 07:16:23;;;;;;;;;;;21.50;63.20;;;;;;4833457;29;19998;-96
2022/09/03 10:31:28;;;;;;;;;;;26.50;48.20;;;;;;5654864;24;19971;-96
2022/09/03 10:34:22;;;;;;;;;;;26.60;48.30;;;;;;4812163;29;20007;-96
2022/09/03 10:37:13;;;;;;;;;;;26.80;48.50;;;;;;4812047;29;19953;-96
2022/09/03 10:40:00;;;;;;;;;;;26.90;48.80;;;;;;4796627;30;19962;-96
2022/09/03 10:42:46;;;;;;;;;;;27.10;46.60;;;;;;4792628;29;20001;-96
2022/09/03 10:45:18;;;;;;;;;;;27.00;45.70;;;;;;4796283;30;19993;-96
2022/09/03 10:47:56;;;;;;;;;;;26.90;45.60;;;;;;4795994;30;19945;-96
2022/09/03 10:50:49;;;;;;;;;;;26.90;45.40;;;;;;4792074;30;19980;-96
2022/09/03 10:53:39;;;;;;;;;;;27.00;45.90;;;;;;4795650;29;19956;-96
2022/09/03 11:32:39;;;;;;;;;;;28.00;42.50;;;;;;4989417;24;19996;-96
2022/09/03 11:35:35;;;;;;;;;;;27.80;43.30;;;;;;4827309;29;19951;-96
2022/09/03 11:38:27;;;;;;;;;;;27.90;44.30;;;;;;4828629;29;20026;-96
2022/09/03 11:41:13;;;;;;;;;;;28.00;43.50;;;;;;4831773;29;20010;-97
2022/09/03 11:43:45;;;;;;;;;;;28.30;44.90;;;;;;4828341;29;19953;-96
2022/09/03 11:46:32;;;;;;;;;;;28.50;43.50;;;;;;4831809;29;19959;-96
2022/09/03 11:49:12;;;;;;;;;;;28.70;42.60;;;;;;4831931;29;20021;-96
2022/09/03 11:52:00;;;;;;;;;;;28.80;43.30;;;;;;4830947;29;19962;-97
2022/09/03 11:54:48;;;;;;;;;;;28.90;41.20;;;;;;4832436;29;19937;-96
2022/09/03 11:57:28;;;;;;;;;;;29.20;41.30;;;;;;4832011;29;19975;-97
2022/09/03 12:05:31;;;;;;;;;;;30.00;40.70;;;;;;4978717;24;20053;-96
2022/09/03 15:12:51;;;;;;;;;;;27.20;55.90;;;;;;4991286;24;20056;-96
2022/09/03 15:15:30;;;;;;;;;;;26.90;58.90;;;;;;4816306;29;19945;-96
2022/09/03 15:18:16;;;;;;;;;;;26.90;58.90;;;;;;4830763;29;19974;-96
2022/09/03 15:20:57;;;;;;;;;;;27.00;56.90;;;;;;4834479;29;19957;-96
2022/09/03 15:23:59;;;;;;;;;;;27.10;57.00;;;;;;4849841;29;20004;-96
2022/09/03 15:26:58;;;;;;;;;;;27.20;57.10;;;;;;4838450;29;19949;-96
2022/09/03 15:29:50;;;;;;;;;;;27.70;55.60;;;;;;4795648;30;19947;-96
2022/09/03 16:06:25;;;;;;;;;;;28.70;51.20;;;;;;5641968;24;19983;-97
2022/09/03 16:08:59;;;;;;;;;;;28.10;52.20;;;;;;4832055;29;19996;-96
2022/09/03 16:11:45;;;;;;;;;;;27.90;53.60;;;;;;4850757;29;19951;-97
2022/09/03 16:27:34;;;;;;;;;;;28.80;51.70;;;;;;5772908;24;19974;-96
2022/09/03 16:30:09;;;;;;;;;;;28.40;52.30;;;;;;4808137;29;19983;-96
2022/09/03 16:32:46;;;;;;;;;;;28.30;52.60;;;;;;4811264;30;20008;-96
2022/09/03 16:35:34;;;;;;;;;;;28.00;53.00;;;;;;4812768;29;19993;-96
2022/09/03 16:38:19;;;;;;;;;;;27.70;53.70;;;;;;4812710;30;19996;-96
2022/09/03 16:40:53;;;;;;;;;;;27.50;54.60;;;;;;4813544;30;19963;-96
2022/09/03 16:43:45;;;;;;;;;;;27.50;55.40;;;;;;4813392;29;20004;-96
2022/09/03 16:46:17;;;;;;;;;;;27.30;55.30;;;;;;4812639;29;19960;-96
2022/09/03 16:49:12;;;;;;;;;;;27.00;55.90;;;;;;4813327;30;19950;-96
2022/09/03 16:52:09;;;;;;;;;;;26.70;56.80;;;;;;4813135;29;19955;-96
2022/09/03 16:54:54;;;;;;;;;;;26.40;57.90;;;;;;4809525;30;19951;-96
2022/09/03 16:57:45;;;;;;;;;;;26.20;58.70;;;;;;4826765;29;19976;-97
2022/09/03 17:00:33;;;;;;;;;;;25.90;59.60;;;;;;4812317;29;20401;-96
2022/09/03 17:03:21;;;;;;;;;;;25.80;60.50;;;;;;4797397;30;19937;-96
2022/09/03 17:06:16;;;;;;;;;;;25.70;60.40;;;;;;4826521;29;19966;-96
2022/09/03 17:08:58;;;;;;;;;;;25.50;60.90;;;;;;4811595;29;19953;-96
2022/09/03 17:11:47;;;;;;;;;;;25.40;61.00;;;;;;4811345;30;19930;-96
2022/09/03 17:14:37;;;;;;;;;;;25.30;60.90;;;;;;4811840;30;19954;-96
2022/09/03 17:17:31;;;;;;;;;;;25.30;61.40;;;;;;4812011;30;19970;-96
2022/09/03 17:20:11;;;;;;;;;;;25.20;61.70;;;;;;4811351;30;19954;-96
2022/09/03 17:23:10;;;;;;;;;;;25.00;62.10;;;;;;4809790;30;19944;-96
2022/09/03 17:26:04;;;;;;;;;;;24.90;62.30;;;;;;4811714;30;19946;-97
2022/09/03 17:28:57;;;;;;;;;;;24.80;62.90;;;;;;4805150;30;19971;-96
2022/09/03 17:31:50;;;;;;;;;;;24.70;63.10;;;;;;4810881;30;19939;-96
2022/09/03 17:34:24;;;;;;;;;;;24.60;63.60;;;;;;4811573;29;19954;-96
2022/09/03 17:37:04;;;;;;;;;;;24.50;63.20;;;;;;4811374;29;19956;-96
2022/09/03 17:39:52;;;;;;;;;;;24.40;63.70;;;;;;4808542;30;19962;-96
2022/09/03 17:42:45;;;;;;;;;;;24.30;64.00;;;;;;4795995;30;19939;-96
2022/09/03 17:45:38;;;;;;;;;;;24.20;63.60;;;;;;4796468;30;20012;-96
2022/09/03 17:48:23;;;;;;;;;;;24.20;63.90;;;;;;4795999;30;19960;-96
2022/09/03 17:51:04;;;;;;;;;;;24.10;63.70;;;;;;4811578;30;19996;-96
2022/09/03 17:53:50;;;;;;;;;;;24.00;64.00;;;;;;4796308;30;19949;-96
2022/09/03 17:56:39;;;;;;;;;;;24.00;63.90;;;;;;4796120;30;19984;-96
2022/09/03 17:59:30;;;;;;;;;;;23.90;64.10;;;;;;4780859;30;19979;-96
2022/09/03 18:02:06;;;;;;;;;;;23.90;64.30;;;;;;4794862;30;19986;-96
2022/09/03 18:04:42;;;;;;;;;;;23.80;64.30;;;;;;4810336;30;20019;-96
2022/09/03 18:07:26;;;;;;;;;;;23.80;64.60;;;;;;4794168;30;19951;-97
2022/09/03 18:10:02;;;;;;;;;;;23.70;65.20;;;;;;4794351;30;20444;-96
2022/09/03 18:12:29;;;;;;;;;;;23.70;65.10;;;;;;4794864;30;19942;-96
2022/09/03 18:14:59;;;;;;;;;;;23.70;65.50;;;;;;4795256;29;19943;-96
2022/09/03 18:17:25;;;;;;;;;;;23.60;66.20;;;;;;4794967;30;19947;-96
2022/09/03 20:10:43;;;;;;;;;;;22.30;74.10;;;;;;4795237;30;19932;-96
2022/09/03 20:13:24;;;;;;;;;;;22.10;75.00;;;;;;4794651;30;19977;-96
2022/09/03 20:16:02;;;;;;;;;;;22.00;74.90;;;;;;4771667;30;20021;-96
2022/09/03 20:18:47;;;;;;;;;;;21.90;75.00;;;;;;4778924;30;19972;-96
2022/09/03 20:21:32;;;;;;;;;;;21.90;74.90;;;;;;4777600;30;19950;-96
2022/09/03 20:24:18;;;;;;;;;;;21.90;75.20;;;;;;4777685;30;19953;-96
2022/09/03 20:27:03;;;;;;;;;;;21.80;75.50;;;;;;4794565;30;19958;-96
2022/09/03 20:29:42;;;;;;;;;;;21.80;75.30;;;;;;4803136;30;19978;-96
2022/09/03 20:32:33;;;;;;;;;;;21.80;75.30;;;;;;4810884;30;19996;-96
2022/09/03 20:35:07;;;;;;;;;;;21.80;76.10;;;;;;4809942;30;19950;-96
2022/09/03 20:37:40;;;;;;;;;;;21.80;77.00;;;;;;4811291;30;19956;-96
2022/09/03 20:40:18;;;;;;;;;;;21.60;77.00;;;;;;4809487;30;19950;-96
2022/09/03 20:43:00;;;;;;;;;;;21.60;76.70;;;;;;4810025;30;19948;-96
2022/09/03 20:45:42;;;;;;;;;;;21.60;76.70;;;;;;4810320;30;19941;-96
2022/09/03 20:48:27;;;;;;;;;;;21.60;76.60;;;;;;4810485;30;19979;-96
2022/09/03 20:50:56;;;;;;;;;;;21.60;76.80;;;;;;4811326;30;19950;-96
2022/09/03 20:53:42;;;;;;;;;;;21.60;76.70;;;;;;4826335;29;19931;-96
2022/09/03 20:56:19;;;;;;;;;;;21.60;77.30;;;;;;4811975;30;19956;-96
2022/09/03 20:58:53;;;;;;;;;;;21.50;77.50;;;;;;4811569;30;19950;-96
2022/09/03 21:01:29;;;;;;;;;;;21.40;77.80;;;;;;4811921;30;19984;-96
2022/09/03 21:04:18;;;;;;;;;;;21.30;78.10;;;;;;4807738;30;19954;-96
2022/09/03 21:07:03;;;;;;;;;;;21.20;78.80;;;;;;4809710;30;19948;-96
2022/09/03 21:09:37;;;;;;;;;;;21.10;79.50;;;;;;4809715;30;19956;-96
2022/09/03 21:12:05;;;;;;;;;;;21.00;79.60;;;;;;4824447;29;19944;-96
2022/09/03 21:14:38;;;;;;;;;;;21.00;79.70;;;;;;4825357;29;19989;-96
2022/09/03 21:17:23;;;;;;;;;;;21.00;79.70;;;;;;4825147;29;19934;-96
2022/09/03 21:20:05;;;;;;;;;;;21.00;79.90;;;;;;4810010;30;19990;-96
2022/09/03 21:22:57;;;;;;;;;;;20.90;80.20;;;;;;4811456;30;19952;-96
2022/09/03 21:25:34;;;;;;;;;;;20.90;80.10;;;;;;4810616;30;19940;-96
2022/09/03 21:28:24;;;;;;;;;;;20.90;80.50;;;;;;4810036;29;20022;-96
2022/09/03 21:30:55;;;;;;;;;;;20.80;80.60;;;;;;4787803;30;20028;-96
2022/09/03 21:33:26;;;;;;;;;;;20.80;80.30;;;;;;4795604;30;20013;-96
2022/09/03 21:36:06;;;;;;;;;;;20.80;80.20;;;;;;4795467;29;19977;-96
2022/09/03 21:38:35;;;;;;;;;;;20.80;80.30;;;;;;4794421;30;20002;-96
2022/09/03 21:41:02;;;;;;;;;;;20.80;80.80;;;;;;4794672;30;19953;-96
2022/09/03 21:43:38;;;;;;;;;;;20.80;80.90;;;;;;4810862;30;20429;-96
2022/09/03 21:46:10;;;;;;;;;;;20.80;80.50;;;;;;4794667;30;19968;-96
2022/09/03 21:48:50;;;;;;;;;;;20.80;79.90;;;;;;4809573;29;19951;-96
2022/09/03 21:51:39;;;;;;;;;;;20.80;80.00;;;;;;4793184;30;19953;-96
2022/09/03 21:54:06;;;;;;;;;;;20.80;80.10;;;;;;4787999;30;20346;-96
2022/09/03 21:56:39;;;;;;;;;;;20.80;80.00;;;;;;4793747;30;19932;-96
2022/09/03 21:59:18;;;;;;;;;;;20.80;79.80;;;;;;4794238;30;19995;-96
2022/09/03 22:02:06;;;;;;;;;;;20.90;79.90;;;;;;4795031;30;19946;-96
2022/09/03 22:04:33;;;;;;;;;;;20.90;80.00;;;;;;4794378;30;19978;-96
2022/09/03 22:07:05;;;;;;;;;;;20.80;80.20;;;;;;4793575;30;19981;-96
2022/09/03 22:09:39;;;;;;;;;;;20.90;80.30;;;;;;4794253;30;19944;-96
2022/09/03 22:12:18;;;;;;;;;;;20.90;80.40;;;;;;4794784;30;19948;-97
2022/09/03 22:14:54;;;;;;;;;;;20.80;80.40;;;;;;4793212;30;19963;-96
2022/09/03 22:17:25;;;;;;;;;;;20.80;80.70;;;;;;4793113;30;19966;-96
2022/09/03 22:19:52;;;;;;;;;;;20.70;80.80;;;;;;4793313;30;19953;-97
2022/09/03 22:22:25;;;;;;;;;;;20.60;81.20;;;;;;4792691;30;19957;-96
2022/09/03 22:25:26;;;;;;;;;;;20.60;81.40;;;;;;4793022;30;19958;-96
2022/09/03 22:28:15;;;;;;;;;;;20.60;81.20;;;;;;4771994;29;19992;-96
2022/09/03 22:30:52;;;;;;;;;;;20.50;81.70;;;;;;4791675;30;20409;-96
2022/09/03 22:33:41;;;;;;;;;;;20.40;82.10;;;;;;4762158;30;19957;-96
2022/09/03 22:36:31;;;;;;;;;;;20.50;82.00;;;;;;4787646;30;19965;-96
2022/09/03 22:39:20;;;;;;;;;;;20.40;82.10;;;;;;4777642;30;19988;-96
2022/09/03 22:41:49;;;;;;;;;;;20.40;82.30;;;;;;4776953;30;19983;-96
2022/09/03 22:44:27;;;;;;;;;;;20.50;82.30;;;;;;4776196;30;20018;-96
2022/09/03 22:47:09;;;;;;;;;;;20.40;82.10;;;;;;4791993;30;19948;-96
2022/09/03 22:49:44;;;;;;;;;;;20.30;82.30;;;;;;4792169;30;19966;-96
2022/09/03 22:52:24;;;;;;;;;;;20.40;82.60;;;;;;4776927;30;19933;-96
2022/09/03 22:55:20;;;;;;;;;;;20.40;82.90;;;;;;4773947;30;20032;-96
2022/09/03 22:58:02;;;;;;;;;;;20.40;82.90;;;;;;4774502;30;19973;-96
2022/09/03 23:00:34;;;;;;;;;;;20.40;83.10;;;;;;4762062;30;19953;-96
2022/09/03 23:03:04;;;;;;;;;;;20.30;83.20;;;;;;4774888;30;20010;-96
2022/09/03 23:05:51;;;;;;;;;;;20.30;83.50;;;;;;4776424;30;19950;-96
2022/09/03 23:08:24;;;;;;;;;;;20.30;83.60;;;;;;4775376;30;19953;-96
2022/09/03 23:11:04;;;;;;;;;;;20.30;83.90;;;;;;4776370;30;19981;-96
2022/09/03 23:13:42;;;;;;;;;;;20.30;84.00;;;;;;4775600;30;19933;-96
2022/09/03 23:16:16;;;;;;;;;;;20.20;84.10;;;;;;4775515;30;19948;-96
2022/09/03 23:18:44;;;;;;;;;;;20.10;84.20;;;;;;4775383;30;19961;-96
2022/09/03 23:21:14;;;;;;;;;;;20.10;84.10;;;;;;4791858;30;19979;-96
2022/09/03 23:23:46;;;;;;;;;;;20.10;84.00;;;;;;4790956;30;19944;-96
2022/09/03 23:26:16;;;;;;;;;;;20.00;83.90;;;;;;4775901;30;19962;-96
2022/09/03 23:28:47;;;;;;;;;;;20.00;83.90;;;;;;4788311;30;20008;-96
2022/09/03 23:31:21;;;;;;;;;;;20.00;84.00;;;;;;4807923;30;20028;-96
2022/09/03 23:33:49;;;;;;;;;;;20.00;84.10;;;;;;4808803;29;19995;-96
2022/09/03 23:36:38;;;;;;;;;;;20.00;84.40;;;;;;4812691;30;19948;-96
2022/09/03 23:39:04;;;;;;;;;;;19.90;84.30;;;;;;4802357;30;19965;-96
2022/09/03 23:41:53;;;;;;;;;;;19.80;84.20;;;;;;4811338;30;19977;-96
2022/09/03 23:44:26;;;;;;;;;;;19.80;84.30;;;;;;4810317;30;19956;-96
2022/09/03 23:47:12;;;;;;;;;;;19.70;84.50;;;;;;4824558;29;19995;-96
2022/09/03 23:49:46;;;;;;;;;;;19.60;84.80;;;;;;4825991;29;19946;-96
2022/09/03 23:52:31;;;;;;;;;;;19.60;85.10;;;;;;4810159;30;19944;-96
2022/09/03 23:55:14;;;;;;;;;;;19.60;85.30;;;;;;4826054;29;19956;-96
2022/09/03 23:57:55;;;;;;;;;;;19.60;85.50;;;;;;4810483;30;19977;-96
